sensor_id;sensor_type;location;lat;lon;timestamp;noise_LAeq;noise_LA_min;noise_LA_max;noise_LA01;noise_LA95
56099;Laerm;44276;49.534;6.378;2023-09-30T00:01:01;43.27;41.75;44.73;;
56099;Laerm;44276;49.534;6.378;2023-09-30T00:03:30;43.25;41.89;44.43;;
56099;Laerm;44276;49.534;6.378;2023-09-30T00:05:58;43.25;42.03;44.31;;
56099;Laerm;44276;49.534;6.378;2023-09-30T00:08:27;43.27;41.89;44.35;;
56099;Laerm;44276;49.534;6.378;2023-09-30T00:10:55;43.31;42.09;45.36;;
56099;Laerm;44276;49.534;6.378;2023-09-30T00:13:25;43.34;41.82;46.33;;
56099;Laerm;44276;49.534;6.378;2023-09-30T00:15:53;43.28;41.89;44.73;;
56099;Laerm;44276;49.534;6.378;2023-09-30T00:18:21;43.27;41.89;44.65;;
56099;Laerm;44276;49.534;6.378;2023-09-30T00:20:49;43.72;41.96;47.24;;
56099;Laerm;44276;49.534;6.378;2023-09-30T00:23:17;43.25;41.96;44.35;;
56099;Laerm;44276;49.534;6.378;2023-09-30T00:25:48;43.24;41.75;44.27;;
56099;Laerm;44276;49.534;6.378;2023-09-30T00:28:18;43.32;41.89;46.23;;
56099;Laerm;44276;49.534;6.378;2023-09-30T00:30:47;43.33;41.94;45.86;;
56099;Laerm;44276;49.534;6.378;2023-09-30T00:33:17;43.27;41.68;44.62;;
56099;Laerm;44276;49.534;6.378;2023-09-30T00:35:45;43.29;41.61;45.23;;
56099;Laerm;44276;49.534;6.378;2023-09-30T00:38:14;43.34;41.89;45.66;;
56099;Laerm;44276;49.534;6.378;2023-09-30T00:40:47;43.28;41.75;44.38;;
56099;Laerm;44276;49.534;6.378;2023-09-30T00:43:19;43.33;41.96;45.14;;
56099;Laerm;44276;49.534;6.378;2023-09-30T00:46:01;43.31;42.03;45.83;;
56099;Laerm;44276;49.534;6.378;2023-09-30T00:48:30;43.29;41.82;44.35;;
56099;Laerm;44276;49.534;6.378;2023-09-30T00:50:58;43.31;41.82;45.36;;
56099;Laerm;44276;49.534;6.378;2023-09-30T00:53:27;43.29;41.75;44.54;;
56099;Laerm;44276;49.534;6.378;2023-09-30T00:55:56;43.31;41.96;44.39;;
56099;Laerm;44276;49.534;6.378;2023-09-30T00:58:26;43.33;41.96;45.94;;
56099;Laerm;44276;49.534;6.378;2023-09-30T01:00:58;43.33;42.03;44.73;;
56099;Laerm;44276;49.534;6.378;2023-09-30T01:03:30;43.30;41.75;44.38;;
56099;Laerm;44276;49.534;6.378;2023-09-30T01:05:59;43.30;42.03;44.51;;
56099;Laerm;44276;49.534;6.378;2023-09-30T01:08:27;43.30;41.89;44.47;;
56099;Laerm;44276;49.534;6.378;2023-09-30T01:10:55;43.30;42.03;44.39;;
56099;Laerm;44276;49.534;6.378;2023-09-30T01:13:32;43.29;41.89;44.43;;
56099;Laerm;44276;49.534;6.378;2023-09-30T01:16:05;43.36;41.82;46.18;;
56099;Laerm;44276;49.534;6.378;2023-09-30T01:18:33;43.30;42.03;44.39;;
56099;Laerm;44276;49.534;6.378;2023-09-30T01:21:07;43.32;41.82;44.39;;
56099;Laerm;44276;49.534;6.378;2023-09-30T01:23:36;43.30;42.03;44.51;;
56099;Laerm;44276;49.534;6.378;2023-09-30T01:26:13;43.32;41.82;44.62;;
56099;Laerm;44276;49.534;6.378;2023-09-30T01:28:42;43.34;41.82;44.80;;
56099;Laerm;44276;49.534;6.378;2023-09-30T01:31:10;43.31;42.03;44.47;;
56099;Laerm;44276;49.534;6.378;2023-09-30T01:33:38;43.32;42.09;44.65;;
56099;Laerm;44276;49.534;6.378;2023-09-30T01:36:07;43.34;42.16;44.35;;
56099;Laerm;44276;49.534;6.378;2023-09-30T01:38:36;43.34;41.89;44.69;;
56099;Laerm;44276;49.534;6.378;2023-09-30T01:41:05;43.36;42.09;44.54;;
56099;Laerm;44276;49.534;6.378;2023-09-30T01:43:33;43.35;42.00;44.39;;
56099;Laerm;44276;49.534;6.378;2023-09-30T01:46:03;43.37;41.82;44.35;;
56099;Laerm;44276;49.534;6.378;2023-09-30T01:48:32;43.43;42.06;46.59;;
56099;Laerm;44276;49.534;6.378;2023-09-30T01:51:00;43.39;42.09;44.62;;
56099;Laerm;44276;49.534;6.378;2023-09-30T01:53:29;43.37;42.03;44.39;;
56099;Laerm;44276;49.534;6.378;2023-09-30T01:55:59;43.37;41.75;44.51;;
56099;Laerm;44276;49.534;6.378;2023-09-30T01:58:27;43.37;41.96;44.39;;
56099;Laerm;44276;49.534;6.378;2023-09-30T02:01:02;43.37;42.16;44.54;;
56099;Laerm;44276;49.534;6.378;2023-09-30T02:03:31;43.38;42.16;44.47;;
56099;Laerm;44276;49.534;6.378;2023-09-30T02:05:59;43.37;42.03;44.47;;
56099;Laerm;44276;49.534;6.378;2023-09-30T02:08:28;43.38;41.89;44.62;;
56099;Laerm;44276;49.534;6.378;2023-09-30T02:10:57;43.43;42.16;45.54;;
56099;Laerm;44276;49.534;6.378;2023-09-30T02:13:25;43.41;42.16;44.83;;
56099;Laerm;44276;49.534;6.378;2023-09-30T02:15:54;43.44;42.09;45.97;;
56099;Laerm;44276;49.534;6.378;2023-09-30T02:18:23;43.41;42.03;45.51;;
56099;Laerm;44276;49.534;6.378;2023-09-30T02:20:51;43.39;42.16;44.65;;
56099;Laerm;44276;49.534;6.378;2023-09-30T02:23:20;43.36;42.16;44.43;;
56099;Laerm;44276;49.534;6.378;2023-09-30T02:25:50;43.37;42.09;44.62;;
56099;Laerm;44276;49.534;6.378;2023-09-30T02:28:20;43.39;42.16;44.51;;
56099;Laerm;44276;49.534;6.378;2023-09-30T02:30:48;43.39;42.16;44.43;;
56099;Laerm;44276;49.534;6.378;2023-09-30T02:33:16;43.40;42.29;44.47;;
56099;Laerm;44276;49.534;6.378;2023-09-30T02:35:45;43.39;42.09;44.65;;
56099;Laerm;44276;49.534;6.378;2023-09-30T02:38:13;43.38;41.82;44.43;;
56099;Laerm;44276;49.534;6.378;2023-09-30T02:40:44;43.38;42.09;44.39;;
56099;Laerm;44276;49.534;6.378;2023-09-30T02:43:13;43.39;41.82;44.73;;
56099;Laerm;44276;49.534;6.378;2023-09-30T02:45:43;43.38;42.16;44.43;;
56099;Laerm;44276;49.534;6.378;2023-09-30T02:48:12;43.38;42.16;44.47;;
56099;Laerm;44276;49.534;6.378;2023-09-30T02:50:42;43.38;42.09;44.47;;
56099;Laerm;44276;49.534;6.378;2023-09-30T02:53:13;43.39;41.96;44.58;;
56099;Laerm;44276;49.534;6.378;2023-09-30T02:55:41;43.38;42.03;44.65;;
56099;Laerm;44276;49.534;6.378;2023-09-30T02:58:11;43.37;42.03;44.54;;
56099;Laerm;44276;49.534;6.378;2023-09-30T03:00:39;43.42;42.13;44.62;;
56099;Laerm;44276;49.534;6.378;2023-09-30T03:03:09;43.43;41.82;45.04;;
56099;Laerm;44276;49.534;6.378;2023-09-30T03:05:37;43.44;42.09;44.87;;
56099;Laerm;44276;49.534;6.378;2023-09-30T03:08:05;43.41;42.16;44.69;;
56099;Laerm;44276;49.534;6.378;2023-09-30T03:10:33;43.39;42.09;44.35;;
56099;Laerm;44276;49.534;6.378;2023-09-30T03:13:08;43.41;41.53;44.58;;
56099;Laerm;44276;49.534;6.378;2023-09-30T03:15:36;43.41;42.16;44.51;;
56099;Laerm;44276;49.534;6.378;2023-09-30T03:18:06;43.42;42.09;44.65;;
56099;Laerm;44276;49.534;6.378;2023-09-30T03:20:36;43.41;42.09;44.80;;
56099;Laerm;44276;49.534;6.378;2023-09-30T03:23:07;43.40;41.89;44.58;;
56099;Laerm;44276;49.534;6.378;2023-09-30T03:25:35;43.40;42.16;44.73;;
56099;Laerm;44276;49.534;6.378;2023-09-30T03:28:05;43.40;42.09;44.80;;
56099;Laerm;44276;49.534;6.378;2023-09-30T03:30:33;43.37;41.96;44.65;;
56099;Laerm;44276;49.534;6.378;2023-09-30T03:33:02;43.37;41.96;44.62;;
56099;Laerm;44276;49.534;6.378;2023-09-30T03:35:31;43.37;41.96;44.35;;
56099;Laerm;44276;49.534;6.378;2023-09-30T03:38:01;43.37;41.82;44.51;;
56099;Laerm;44276;49.534;6.378;2023-09-30T03:40:30;43.39;41.68;44.51;;
56099;Laerm;44276;49.534;6.378;2023-09-30T03:43:01;43.46;42.09;45.63;;
56099;Laerm;44276;49.534;6.378;2023-09-30T03:45:30;43.35;42.09;44.58;;
56099;Laerm;44276;49.534;6.378;2023-09-30T03:48:01;43.42;42.03;44.58;;
56099;Laerm;44276;49.534;6.378;2023-09-30T03:50:30;43.38;41.82;44.43;;
56099;Laerm;44276;49.534;6.378;2023-09-30T03:53:03;43.38;42.16;44.62;;
56099;Laerm;44276;49.534;6.378;2023-09-30T03:55:34;43.38;42.16;44.51;;
56099;Laerm;44276;49.534;6.378;2023-09-30T03:58:03;43.36;41.89;44.54;;
56099;Laerm;44276;49.534;6.378;2023-09-30T04:00:32;43.49;42.16;46.34;;
56099;Laerm;44276;49.534;6.378;2023-09-30T04:03:00;43.38;42.06;44.54;;
56099;Laerm;44276;49.534;6.378;2023-09-30T04:05:30;43.40;41.82;45.23;;
56099;Laerm;44276;49.534;6.378;2023-09-30T04:08:05;43.44;42.16;44.80;;
56099;Laerm;44276;49.534;6.378;2023-09-30T04:10:33;43.41;41.96;44.94;;
56099;Laerm;44276;49.534;6.378;2023-09-30T04:13:01;43.42;42.09;44.51;;
56099;Laerm;44276;49.534;6.378;2023-09-30T04:15:29;43.39;42.09;44.51;;
56099;Laerm;44276;49.534;6.378;2023-09-30T04:17:58;43.41;41.75;44.65;;
56099;Laerm;44276;49.534;6.378;2023-09-30T04:20:26;43.38;42.03;44.43;;
56099;Laerm;44276;49.534;6.378;2023-09-30T04:22:55;43.38;42.22;44.76;;
56099;Laerm;44276;49.534;6.378;2023-09-30T04:25:26;43.41;42.16;44.51;;
56099;Laerm;44276;49.534;6.378;2023-09-30T04:27:54;43.48;42.03;44.90;;
56099;Laerm;44276;49.534;6.378;2023-09-30T04:30:22;43.43;42.03;44.90;;
56099;Laerm;44276;49.534;6.378;2023-09-30T04:32:50;43.38;42.03;44.58;;
56099;Laerm;44276;49.534;6.378;2023-09-30T04:35:19;43.41;42.03;44.54;;
56099;Laerm;44276;49.534;6.378;2023-09-30T04:37:48;43.40;42.09;44.58;;
56099;Laerm;44276;49.534;6.378;2023-09-30T04:40:16;43.40;41.96;45.07;;
56099;Laerm;44276;49.534;6.378;2023-09-30T04:42:48;43.38;42.09;44.76;;
56099;Laerm;44276;49.534;6.378;2023-09-30T04:45:17;43.42;42.24;45.17;;
56099;Laerm;44276;49.534;6.378;2023-09-30T04:47:47;43.40;41.82;44.47;;
56099;Laerm;44276;49.534;6.378;2023-09-30T04:50:17;43.45;41.96;45.14;;
56099;Laerm;44276;49.534;6.378;2023-09-30T04:52:48;43.42;42.16;44.73;;
56099;Laerm;44276;49.534;6.378;2023-09-30T04:55:17;43.41;42.09;44.54;;
56099;Laerm;44276;49.534;6.378;2023-09-30T04:57:48;43.41;42.16;44.65;;
56099;Laerm;44276;49.534;6.378;2023-09-30T05:00:18;43.40;41.89;44.54;;
56099;Laerm;44276;49.534;6.378;2023-09-30T05:02:52;43.41;41.96;44.58;;
56099;Laerm;44276;49.534;6.378;2023-09-30T05:05:21;43.43;42.03;44.73;;
56099;Laerm;44276;49.534;6.378;2023-09-30T05:07:49;43.41;41.75;44.69;;
56099;Laerm;44276;49.534;6.378;2023-09-30T05:10:18;43.40;42.09;44.54;;
56099;Laerm;44276;49.534;6.378;2023-09-30T05:12:47;43.39;42.03;44.62;;
56099;Laerm;44276;49.534;6.378;2023-09-30T05:15:17;43.44;41.89;45.23;;
56099;Laerm;44276;49.534;6.378;2023-09-30T05:17:47;43.42;42.09;44.65;;
56099;Laerm;44276;49.534;6.378;2023-09-30T05:20:17;43.38;42.03;44.54;;
56099;Laerm;44276;49.534;6.378;2023-09-30T05:22:45;43.41;42.03;44.69;;
56099;Laerm;44276;49.534;6.378;2023-09-30T05:25:16;43.38;41.89;45.14;;
56099;Laerm;44276;49.534;6.378;2023-09-30T05:27:47;43.41;42.22;44.54;;
56099;Laerm;44276;49.534;6.378;2023-09-30T05:30:16;43.39;41.96;44.47;;
56099;Laerm;44276;49.534;6.378;2023-09-30T05:32:46;43.53;42.09;47.91;;
56099;Laerm;44276;49.534;6.378;2023-09-30T05:35:15;43.39;42.09;44.94;;
56099;Laerm;44276;49.534;6.378;2023-09-30T05:37:44;43.41;42.16;44.58;;
56099;Laerm;44276;49.534;6.378;2023-09-30T05:40:13;43.42;42.09;44.58;;
56099;Laerm;44276;49.534;6.378;2023-09-30T05:42:52;43.45;42.13;44.62;;
56099;Laerm;44276;49.534;6.378;2023-09-30T05:45:21;43.42;41.94;44.83;;
56099;Laerm;44276;49.534;6.378;2023-09-30T05:47:50;43.38;41.82;44.47;;
56099;Laerm;44276;49.534;6.378;2023-09-30T05:50:21;43.38;42.03;44.54;;
56099;Laerm;44276;49.534;6.378;2023-09-30T05:52:54;43.39;42.16;44.47;;
56099;Laerm;44276;49.534;6.378;2023-09-30T05:55:23;43.42;41.96;45.01;;
56099;Laerm;44276;49.534;6.378;2023-09-30T05:57:55;43.43;42.16;45.31;;
56099;Laerm;44276;49.534;6.378;2023-09-30T06:00:23;43.46;41.89;44.76;;
56099;Laerm;44276;49.534;6.378;2023-09-30T06:02:56;43.41;42.03;44.62;;
56099;Laerm;44276;49.534;6.378;2023-09-30T06:05:25;43.49;42.16;45.94;;
56099;Laerm;44276;49.534;6.378;2023-09-30T06:07:57;43.41;42.03;44.65;;
56099;Laerm;44276;49.534;6.378;2023-09-30T06:10:25;43.42;42.03;44.58;;
56099;Laerm;44276;49.534;6.378;2023-09-30T06:12:56;43.62;42.22;45.69;;
56099;Laerm;44276;49.534;6.378;2023-09-30T06:15:25;43.41;42.03;44.73;;
56099;Laerm;44276;49.534;6.378;2023-09-30T06:17:55;43.40;42.03;44.47;;
56099;Laerm;44276;49.534;6.378;2023-09-30T06:20:26;43.49;42.16;44.80;;
56099;Laerm;44276;49.534;6.378;2023-09-30T06:22:56;43.46;42.30;44.62;;
56099;Laerm;44276;49.534;6.378;2023-09-30T06:25:24;43.44;42.09;44.90;;
56099;Laerm;44276;49.534;6.378;2023-09-30T06:27:55;43.42;42.03;44.54;;
56099;Laerm;44276;49.534;6.378;2023-09-30T06:30:24;43.82;42.16;52.72;;
56099;Laerm;44276;49.534;6.378;2023-09-30T06:32:58;43.43;41.82;45.11;;
56099;Laerm;44276;49.534;6.378;2023-09-30T06:35:28;43.51;42.09;45.54;;
56099;Laerm;44276;49.534;6.378;2023-09-30T06:38:01;43.48;42.16;44.87;;
56099;Laerm;44276;49.534;6.378;2023-09-30T06:40:30;43.47;42.16;44.73;;
56099;Laerm;44276;49.534;6.378;2023-09-30T06:42:59;43.41;42.22;44.54;;
56099;Laerm;44276;49.534;6.378;2023-09-30T06:45:28;43.47;41.96;44.87;;
56099;Laerm;44276;49.534;6.378;2023-09-30T06:47:56;43.46;42.22;44.90;;
56099;Laerm;44276;49.534;6.378;2023-09-30T06:50:25;43.46;41.89;44.62;;
56099;Laerm;44276;49.534;6.378;2023-09-30T06:52:53;43.50;42.16;44.73;;
56099;Laerm;44276;49.534;6.378;2023-09-30T06:55:21;43.45;42.03;44.52;;
56099;Laerm;44276;49.534;6.378;2023-09-30T06:57:49;43.47;41.46;44.90;;
56099;Laerm;44276;49.534;6.378;2023-09-30T07:00:19;43.49;42.35;44.73;;
56099;Laerm;44276;49.534;6.378;2023-09-30T07:02:47;43.47;42.16;44.62;;
56099;Laerm;44276;49.534;6.378;2023-09-30T07:05:17;43.50;42.09;44.69;;
56099;Laerm;44276;49.534;6.378;2023-09-30T07:07:45;43.51;42.16;44.62;;
56099;Laerm;44276;49.534;6.378;2023-09-30T07:10:13;43.50;42.09;44.54;;
56099;Laerm;44276;49.534;6.378;2023-09-30T07:12:41;43.51;42.29;44.80;;
56099;Laerm;44276;49.534;6.378;2023-09-30T07:15:10;43.57;42.16;45.36;;
56099;Laerm;44276;49.534;6.378;2023-09-30T07:17:42;43.52;42.29;44.94;;
56099;Laerm;44276;49.534;6.378;2023-09-30T07:20:12;43.52;41.89;44.73;;
56099;Laerm;44276;49.534;6.378;2023-09-30T07:22:41;43.51;42.09;44.69;;
56099;Laerm;44276;49.534;6.378;2023-09-30T07:25:25;43.60;42.41;44.83;;
56099;Laerm;44276;49.534;6.378;2023-09-30T07:27:53;43.57;42.35;45.80;;
56099;Laerm;44276;49.534;6.378;2023-09-30T07:30:21;43.53;42.22;44.97;;
56099;Laerm;44276;49.534;6.378;2023-09-30T07:32:51;43.56;42.09;44.87;;
56099;Laerm;44276;49.534;6.378;2023-09-30T07:35:19;43.56;42.09;44.87;;
56099;Laerm;44276;49.534;6.378;2023-09-30T07:37:48;43.59;42.29;44.80;;
56099;Laerm;44276;49.534;6.378;2023-09-30T07:40:20;43.55;42.09;45.20;;
56099;Laerm;44276;49.534;6.378;2023-09-30T07:42:49;43.60;42.29;44.90;;
56099;Laerm;44276;49.534;6.378;2023-09-30T07:45:18;43.61;42.29;44.76;;
56099;Laerm;44276;49.534;6.378;2023-09-30T07:47:48;43.59;42.41;50.56;;
56099;Laerm;44276;49.534;6.378;2023-09-30T07:50:19;43.55;42.09;44.65;;
56099;Laerm;44276;49.534;6.378;2023-09-30T07:52:48;43.61;42.09;45.33;;
56099;Laerm;44276;49.534;6.378;2023-09-30T07:55:16;43.63;42.41;45.54;;
56099;Laerm;44276;49.534;6.378;2023-09-30T07:57:44;43.58;42.16;44.76;;
56099;Laerm;44276;49.534;6.378;2023-09-30T08:00:14;43.66;42.41;46.57;;
56099;Laerm;44276;49.534;6.378;2023-09-30T08:02:50;43.63;42.29;44.94;;
56099;Laerm;44276;49.534;6.378;2023-09-30T08:05:19;43.58;42.35;44.69;;
56099;Laerm;44276;49.534;6.378;2023-09-30T08:07:47;43.62;42.47;44.83;;
56099;Laerm;44276;49.534;6.378;2023-09-30T08:10:15;43.61;42.22;45.11;;
56099;Laerm;44276;49.534;6.378;2023-09-30T08:12:44;43.69;42.35;44.83;;
56099;Laerm;44276;49.534;6.378;2023-09-30T08:15:15;43.67;42.35;45.42;;
56099;Laerm;44276;49.534;6.378;2023-09-30T08:17:44;43.65;42.35;44.80;;
56099;Laerm;44276;49.534;6.378;2023-09-30T08:20:12;43.69;42.30;45.97;;
56099;Laerm;44276;49.534;6.378;2023-09-30T08:22:42;43.64;42.41;44.65;;
56099;Laerm;44276;49.534;6.378;2023-09-30T08:25:11;43.65;42.41;45.04;;
56099;Laerm;44276;49.534;6.378;2023-09-30T08:27:39;43.66;42.22;45.36;;
56099;Laerm;44276;49.534;6.378;2023-09-30T08:30:09;43.71;42.22;44.97;;
56099;Laerm;44276;49.534;6.378;2023-09-30T08:32:37;43.74;42.41;45.36;;
56099;Laerm;44276;49.534;6.378;2023-09-30T08:35:07;43.72;42.35;44.73;;
56099;Laerm;44276;49.534;6.378;2023-09-30T08:37:36;43.72;42.41;45.33;;
56099;Laerm;44276;49.534;6.378;2023-09-30T08:40:08;43.77;42.64;45.23;;
56099;Laerm;44276;49.534;6.378;2023-09-30T08:42:39;43.70;42.41;44.90;;
56099;Laerm;44276;49.534;6.378;2023-09-30T08:45:12;43.69;42.09;45.14;;
56099;Laerm;44276;49.534;6.378;2023-09-30T08:47:42;43.69;42.41;45.01;;
56099;Laerm;44276;49.534;6.378;2023-09-30T08:50:11;43.69;42.35;45.14;;
56099;Laerm;44276;49.534;6.378;2023-09-30T08:52:41;43.73;42.47;45.04;;
56099;Laerm;44276;49.534;6.378;2023-09-30T08:55:12;43.75;42.53;48.99;;
56099;Laerm;44276;49.534;6.378;2023-09-30T08:57:41;43.72;42.53;45.11;;
56099;Laerm;44276;49.534;6.378;2023-09-30T09:00:12;43.76;42.65;44.83;;
56099;Laerm;44276;49.534;6.378;2023-09-30T09:02:42;43.80;42.59;45.17;;
56099;Laerm;44276;49.534;6.378;2023-09-30T09:05:10;43.83;42.53;45.07;;
56099;Laerm;44276;49.534;6.378;2023-09-30T09:07:42;43.76;42.47;44.97;;
56099;Laerm;44276;49.534;6.378;2023-09-30T09:10:53;43.84;42.53;45.91;;
56099;Laerm;44276;49.534;6.378;2023-09-30T09:17:52;43.76;42.29;44.76;;
56099;Laerm;44276;49.534;6.378;2023-09-30T09:20:30;43.80;42.59;46.43;;
56099;Laerm;44276;49.534;6.378;2023-09-30T09:23:26;43.81;42.64;44.90;;
56099;Laerm;44276;49.534;6.378;2023-09-30T09:26:23;43.81;42.35;45.33;;
56099;Laerm;44276;49.534;6.378;2023-09-30T09:29:11;43.86;42.65;45.14;;
56099;Laerm;44276;49.534;6.378;2023-09-30T09:31:40;43.82;42.59;44.97;;
56099;Laerm;44276;49.534;6.378;2023-09-30T09:34:14;43.80;42.47;44.83;;
56099;Laerm;44276;49.534;6.378;2023-09-30T09:36:44;43.83;42.65;45.45;;
56099;Laerm;44276;49.534;6.378;2023-09-30T09:39:13;43.80;42.53;44.94;;
56099;Laerm;44276;49.534;6.378;2023-09-30T09:41:52;43.86;42.71;45.04;;
56099;Laerm;44276;49.534;6.378;2023-09-30T09:44:22;43.91;42.41;45.07;;
56099;Laerm;44276;49.534;6.378;2023-09-30T09:46:52;43.96;42.71;48.49;;
56099;Laerm;44276;49.534;6.378;2023-09-30T09:49:22;43.95;42.71;45.17;;
56099;Laerm;44276;49.534;6.378;2023-09-30T09:51:52;43.94;42.59;45.28;;
56099;Laerm;44276;49.534;6.378;2023-09-30T09:54:23;43.97;42.71;49.58;;
56099;Laerm;44276;49.534;6.378;2023-09-30T09:57:00;43.97;42.47;45.07;;
56099;Laerm;44276;49.534;6.378;2023-09-30T09:59:30;43.99;42.71;45.14;;
56099;Laerm;44276;49.534;6.378;2023-09-30T10:02:09;44.05;42.82;48.72;;
56099;Laerm;44276;49.534;6.378;2023-09-30T10:04:39;44.16;42.76;46.28;;
56099;Laerm;44276;49.534;6.378;2023-09-30T10:07:11;44.13;42.93;45.99;;
56099;Laerm;44276;49.534;6.378;2023-09-30T10:09:47;44.12;42.98;45.30;;
56099;Laerm;44276;49.534;6.378;2023-09-30T10:12:20;44.07;42.59;45.17;;
56099;Laerm;44276;49.534;6.378;2023-09-30T10:14:52;44.09;42.88;45.20;;
56099;Laerm;44276;49.534;6.378;2023-09-30T10:17:57;44.06;42.76;45.27;;
56099;Laerm;44276;49.534;6.378;2023-09-30T10:20:29;44.16;42.82;45.51;;
56099;Laerm;44276;49.534;6.378;2023-09-30T10:23:20;44.16;43.04;45.33;;
56099;Laerm;44276;49.534;6.378;2023-09-30T10:25:52;44.17;42.98;45.83;;
56099;Laerm;44276;49.534;6.378;2023-09-30T10:28:38;44.18;42.82;45.45;;
56099;Laerm;44276;49.534;6.378;2023-09-30T10:31:13;44.23;43.04;45.60;;
56099;Laerm;44276;49.534;6.378;2023-09-30T10:34:19;44.25;42.93;45.45;;
56099;Laerm;44276;49.534;6.378;2023-09-30T10:36:49;44.25;42.98;45.27;;
56099;Laerm;44276;49.534;6.378;2023-09-30T10:39:58;44.25;42.98;45.45;;
56099;Laerm;44276;49.534;6.378;2023-09-30T10:42:47;44.28;43.09;45.63;;
56099;Laerm;44276;49.534;6.378;2023-09-30T10:45:46;44.31;42.93;45.88;;
56099;Laerm;44276;49.534;6.378;2023-09-30T10:48:36;44.32;43.14;45.45;;
56099;Laerm;44276;49.534;6.378;2023-09-30T10:51:15;44.34;43.14;46.56;;
56099;Laerm;44276;49.534;6.378;2023-09-30T10:53:49;44.33;43.19;45.48;;
56099;Laerm;44276;49.534;6.378;2023-09-30T10:56:20;44.34;43.09;45.63;;
56099;Laerm;44276;49.534;6.378;2023-09-30T10:58:51;44.36;43.14;46.64;;
56099;Laerm;44276;49.534;6.378;2023-09-30T11:01:24;44.26;43.14;45.63;;
56099;Laerm;44276;49.534;6.378;2023-09-30T11:04:01;44.26;42.93;45.86;;
56099;Laerm;44276;49.534;6.378;2023-09-30T11:06:31;44.24;42.98;45.45;;
56099;Laerm;44276;49.534;6.378;2023-09-30T11:09:02;44.15;42.93;45.23;;
56099;Laerm;44276;49.534;6.378;2023-09-30T11:11:39;44.15;42.76;45.42;;
56099;Laerm;44276;49.534;6.378;2023-09-30T11:14:29;44.11;42.93;45.51;;
56099;Laerm;44276;49.534;6.378;2023-09-30T11:17:02;44.13;43.04;45.72;;
56099;Laerm;44276;49.534;6.378;2023-09-30T11:19:36;44.11;42.98;45.23;;
56099;Laerm;44276;49.534;6.378;2023-09-30T11:22:05;44.10;42.98;45.83;;
56099;Laerm;44276;49.534;6.378;2023-09-30T11:24:35;44.09;42.65;47.42;;
56099;Laerm;44276;49.534;6.378;2023-09-30T11:27:04;44.04;42.76;45.14;;
56099;Laerm;44276;49.534;6.378;2023-09-30T11:29:32;44.11;42.88;45.39;;
56099;Laerm;44276;49.534;6.378;2023-09-30T11:32:02;44.11;42.88;45.48;;
56099;Laerm;44276;49.534;6.378;2023-09-30T11:34:35;44.21;42.88;46.45;;
56099;Laerm;44276;49.534;6.378;2023-09-30T11:37:05;44.14;42.93;46.15;;
56099;Laerm;44276;49.534;6.378;2023-09-30T11:39:33;44.02;42.76;45.17;;
56099;Laerm;44276;49.534;6.378;2023-09-30T11:42:14;43.87;42.65;45.69;;
56099;Laerm;44276;49.534;6.378;2023-09-30T11:44:45;43.82;42.59;45.04;;
56099;Laerm;44276;49.534;6.378;2023-09-30T11:47:16;43.76;42.47;44.94;;
56099;Laerm;44276;49.534;6.378;2023-09-30T11:49:44;43.78;42.59;44.82;;
56099;Laerm;44276;49.534;6.378;2023-09-30T11:52:27;43.76;42.22;45.30;;
56099;Laerm;44276;49.534;6.378;2023-09-30T11:54:56;43.72;42.41;44.76;;
56099;Laerm;44276;49.534;6.378;2023-09-30T11:57:25;43.66;42.29;46.73;;
56099;Laerm;44276;49.534;6.378;2023-09-30T11:59:53;43.47;42.03;45.63;;
56099;Laerm;44276;49.534;6.378;2023-09-30T12:02:23;43.30;41.89;44.58;;
56099;Laerm;44276;49.534;6.378;2023-09-30T12:04:51;43.30;41.89;44.76;;
56099;Laerm;44276;49.534;6.378;2023-09-30T12:07:20;43.28;42.03;44.43;;
56099;Laerm;44276;49.534;6.378;2023-09-30T12:09:48;43.47;41.96;44.80;;
56099;Laerm;44276;49.534;6.378;2023-09-30T12:12:16;43.54;41.96;44.69;;
56099;Laerm;44276;49.534;6.378;2023-09-30T12:14:44;43.71;42.22;46.15;;
56099;Laerm;44276;49.534;6.378;2023-09-30T12:17:13;43.75;42.59;45.27;;
56099;Laerm;44276;49.534;6.378;2023-09-30T12:19:42;43.87;42.53;46.18;;
56099;Laerm;44276;49.534;6.378;2023-09-30T12:22:11;43.92;42.65;45.46;;
56099;Laerm;44276;49.534;6.378;2023-09-30T12:24:39;44.00;42.76;45.04;;
56099;Laerm;44276;49.534;6.378;2023-09-30T12:27:08;44.02;42.76;45.60;;
56099;Laerm;44276;49.534;6.378;2023-09-30T12:29:36;43.99;42.65;45.33;;
56099;Laerm;44276;49.534;6.378;2023-09-30T12:32:06;43.84;42.71;46.15;;
56099;Laerm;44276;49.534;6.378;2023-09-30T12:34:35;43.53;42.16;44.73;;
56099;Laerm;44276;49.534;6.378;2023-09-30T12:37:06;43.33;41.61;44.90;;
56099;Laerm;44276;49.534;6.378;2023-09-30T12:39:34;43.29;42.03;44.35;;
56099;Laerm;44276;49.534;6.378;2023-09-30T12:42:04;43.37;42.29;44.54;;
56099;Laerm;44276;49.534;6.378;2023-09-30T12:44:36;43.39;42.16;45.45;;
56099;Laerm;44276;49.534;6.378;2023-09-30T12:47:04;43.21;41.61;44.51;;
56099;Laerm;44276;49.534;6.378;2023-09-30T12:49:33;42.89;41.14;44.72;;
56099;Laerm;44276;49.534;6.378;2023-09-30T12:52:03;42.39;40.62;43.99;;
56099;Laerm;44276;49.534;6.378;2023-09-30T12:54:32;42.29;40.80;43.77;;
56099;Laerm;44276;49.534;6.378;2023-09-30T12:57:01;42.55;40.98;44.58;;
56099;Laerm;44276;49.534;6.378;2023-09-30T12:59:29;42.45;40.80;44.27;;
56099;Laerm;44276;49.534;6.378;2023-09-30T13:01:57;42.69;40.71;44.47;;
56099;Laerm;44276;49.534;6.378;2023-09-30T13:04:26;42.47;40.53;43.86;;
56099;Laerm;44276;49.534;6.378;2023-09-30T13:06:54;42.75;41.14;45.30;;
56099;Laerm;44276;49.534;6.378;2023-09-30T13:09:24;42.88;41.53;44.83;;
56099;Laerm;44276;49.534;6.378;2023-09-30T13:11:52;42.57;40.98;45.04;;
56099;Laerm;44276;49.534;6.378;2023-09-30T13:14:20;42.28;40.53;43.99;;
56099;Laerm;44276;49.534;6.378;2023-09-30T13:16:48;42.30;40.62;44.43;;
56099;Laerm;44276;49.534;6.378;2023-09-30T13:19:16;42.05;39.58;43.99;;
56099;Laerm;44276;49.534;6.378;2023-09-30T13:21:48;42.82;39.81;46.13;;
56099;Laerm;44276;49.534;6.378;2023-09-30T13:24:17;42.58;40.80;52.29;;
56099;Laerm;44276;49.534;6.378;2023-09-30T13:26:47;42.70;40.23;46.87;;
56099;Laerm;44276;49.534;6.378;2023-09-30T13:29:17;43.47;40.33;52.47;;
56099;Laerm;44276;49.534;6.378;2023-09-30T13:31:45;42.81;39.92;52.03;;
56099;Laerm;44276;49.534;6.378;2023-09-30T13:34:13;42.51;39.58;45.89;;
56099;Laerm;44276;49.534;6.378;2023-09-30T13:36:42;43.25;40.71;45.75;;
56099;Laerm;44276;49.534;6.378;2023-09-30T13:39:10;42.73;39.70;45.86;;
56099;Laerm;44276;49.534;6.378;2023-09-30T13:41:40;42.56;39.81;46.45;;
56099;Laerm;44276;49.534;6.378;2023-09-30T13:44:10;45.12;40.62;51.56;;
56099;Laerm;44276;49.534;6.378;2023-09-30T13:46:39;46.13;40.89;51.01;;
56099;Laerm;44276;49.534;6.378;2023-09-30T13:49:07;45.67;39.58;54.41;;
56099;Laerm;44276;49.534;6.378;2023-09-30T13:51:35;47.88;38.21;55.26;;
56099;Laerm;44276;49.534;6.378;2023-09-30T13:54:06;48.03;36.45;54.84;;
56099;Laerm;44276;49.534;6.378;2023-09-30T13:56:35;46.70;35.66;56.01;;
56099;Laerm;44276;49.534;6.378;2023-09-30T13:59:03;50.79;41.61;57.18;;
56099;Laerm;44276;49.534;6.378;2023-09-30T14:01:36;50.47;40.43;56.57;;
56099;Laerm;44276;49.534;6.378;2023-09-30T14:04:05;50.65;38.21;56.41;;
56099;Laerm;44276;49.534;6.378;2023-09-30T14:06:33;51.95;39.34;58.71;;
56099;Laerm;44276;49.534;6.378;2023-09-30T14:09:02;50.58;39.58;58.15;;